Time;durP1;ratioP1;P1;durP2;ratioP2;P2;SDS_P1;SDS_P2;PMS_P1;PMS_P2;Temp;Humidity;BMP_temperature;BMP_pressure;BME280_temperature;BME280_humidity;BME280_pressure;Samples;Min_cycle;Max_cycle;Signal;HPM_P1;HPM_P2
2023/07/11 00:00:47;;;;;;;4.90;3.70;;;23.10;69.00;;;;;;5075681;28;20051;-73
2023/07/11 00:03:13;;;;;;;6.55;3.50;;;23.10;68.80;;;;;;5093312;28;20029;-73
2023/07/11 00:05:39;;;;;;;8.38;3.85;;;23.00;68.30;;;;;;5093363;28;20395;-73
2023/07/11 00:08:06;;;;;;;7.10;3.70;;;23.00;68.50;;;;;;5092327;28;20032;-73
2023/07/11 00:10:32;;;;;;;5.65;3.60;;;23.00;68.50;;;;;;5092261;28;20020;-73
2023/07/11 00:12:57;;;;;;;4.53;3.38;;;23.00;68.50;;;;;;5092397;28;20088;-73
2023/07/11 00:15:23;;;;;;;5.47;3.42;;;22.90;68.50;;;;;;5093256;28;20044;-73
2023/07/11 00:17:49;;;;;;;6.65;3.70;;;22.90;69.10;;;;;;5092213;28;20036;-73
2023/07/11 00:20:15;;;;;;;7.03;3.72;;;22.90;70.20;;;;;;5093217;28;20027;-74
2023/07/11 00:22:43;;;;;;;6.20;3.40;;;22.90;69.50;;;;;;5093145;28;20017;-73
2023/07/11 00:25:09;;;;;;;7.32;3.70;;;22.80;69.50;;;;;;5092205;28;20031;-73
2023/07/11 00:27:36;;;;;;;6.00;3.80;;;22.90;69.60;;;;;;5093142;28;20021;-73
2023/07/11 00:30:02;;;;;;;5.57;4.13;;;22.80;68.80;;;;;;5092137;28;20050;-73
2023/07/11 00:32:28;;;;;;;6.45;3.60;;;22.80;69.10;;;;;;5092029;28;20108;-73
2023/07/11 00:34:53;;;;;;;7.82;3.95;;;22.80;69.40;;;;;;5092083;28;20032;-73
2023/07/11 00:37:19;;;;;;;5.78;3.47;;;22.80;70.00;;;;;;5092279;28;20545;-73
2023/07/11 00:39:45;;;;;;;4.97;3.35;;;22.70;69.70;;;;;;5091832;28;20064;-73
2023/07/11 00:42:10;;;;;;;4.70;3.25;;;22.60;70.60;;;;;;5092993;28;20029;-73
2023/07/11 00:44:58;;;;;;;6.20;3.70;;;22.60;69.80;;;;;;5092018;28;20033;-73
2023/07/11 00:47:26;;;;;;;8.30;3.88;;;22.60;70.10;;;;;;5091945;28;20021;-73
2023/07/11 00:50:00;;;;;;;5.13;3.60;;;22.60;70.40;;;;;;5092126;28;20029;-73
2023/07/11 00:52:28;;;;;;;8.40;3.72;;;22.50;71.50;;;;;;5092955;28;20080;-73
2023/07/11 00:54:58;;;;;;;5.68;3.50;;;22.50;70.80;;;;;;5092849;28;20027;-73
2023/07/11 00:57:26;;;;;;;4.32;3.50;;;22.50;71.10;;;;;;5092954;28;20076;-73
2023/07/11 00:59:52;;;;;;;6.55;3.50;;;22.50;71.40;;;;;;5096136;28;20076;-73
2023/07/11 01:02:24;;;;;;;5.72;3.28;;;22.40;71.10;;;;;;5095702;28;20040;-73
2023/07/11 01:04:50;;;;;;;;;;;22.40;71.10;;;;;;5096049;28;20024;-73
2023/07/11 01:07:28;;;;;;;6.18;3.70;;;22.40;71.10;;;;;;5096558;28;19916;-73
2023/07/11 01:09:55;;;;;;;6.72;4.00;;;22.30;71.40;;;;;;5096524;28;20414;-72
2023/07/11 01:12:22;;;;;;;6.82;3.83;;;22.30;71.50;;;;;;5095450;28;20025;-74
2023/07/11 01:14:49;;;;;;;5.13;3.65;;;22.20;71.40;;;;;;5095425;28;20027;-73
2023/07/11 01:17:25;;;;;;;5.80;4.05;;;22.20;71.40;;;;;;5096361;28;20054;-73
2023/07/11 01:19:51;;;;;;;7.80;3.97;;;22.20;71.50;;;;;;5095263;28;20036;-73
2023/07/11 01:22:17;;;;;;;5.65;3.80;;;22.20;71.20;;;;;;5096264;28;20040;-73
2023/07/11 01:24:43;;;;;;;5.60;3.92;;;22.20;71.10;;;;;;5095235;28;20063;-73
2023/07/11 01:27:09;;;;;;;6.30;3.80;;;22.10;71.20;;;;;;5095189;28;20028;-73
2023/07/11 01:29:34;;;;;;;6.07;3.70;;;22.20;71.20;;;;;;5096110;28;20036;-74
2023/07/11 01:32:00;;;;;;;5.85;3.65;;;22.10;71.30;;;;;;5095105;28;20028;-73
2023/07/11 01:34:26;;;;;;;4.40;3.30;;;22.10;71.70;;;;;;5095952;28;20032;-73
2023/07/11 01:36:51;;;;;;;7.15;4.45;;;22.10;71.70;;;;;;5095982;28;20025;-73
2023/07/11 01:39:17;;;;;;;5.60;3.80;;;22.10;71.80;;;;;;5095756;28;20059;-73
2023/07/11 01:41:43;;;;;;;9.25;3.80;;;22.00;72.10;;;;;;5094920;28;20060;-73
2023/07/11 01:44:10;;;;;;;6.55;4.18;;;22.00;72.50;;;;;;5094804;28;20039;-73
2023/07/11 01:46:36;;;;;;;6.93;4.00;;;22.00;72.50;;;;;;5095813;28;20025;-73
2023/07/11 01:49:02;;;;;;;7.78;3.88;;;22.00;72.40;;;;;;5095804;28;20033;-73
2023/07/11 01:51:28;;;;;;;4.82;3.50;;;22.00;72.40;;;;;;5095769;28;20034;-73
2023/07/11 01:53:54;;;;;;;6.97;3.83;;;22.00;72.00;;;;;;5095842;28;20033;-73
2023/07/11 01:56:20;;;;;;;5.63;4.10;;;22.00;72.20;;;;;;5094606;28;20032;-73
2023/07/11 01:58:45;;;;;;;7.88;4.00;;;21.90;72.40;;;;;;5095632;28;20037;-73
2023/07/11 02:01:11;;;;;;;6.05;4.28;;;21.90;72.50;;;;;;5094605;28;20025;-73
2023/07/11 02:03:37;;;;;;;6.32;4.03;;;21.80;72.60;;;;;;5094342;28;20016;-73
2023/07/11 02:06:03;;;;;;;9.25;4.45;;;21.80;72.70;;;;;;5094446;28;20050;-73
2023/07/11 02:08:28;;;;;;;7.10;4.20;;;21.70;72.90;;;;;;5094390;28;20040;-73
2023/07/11 02:10:54;;;;;;;9.52;4.47;;;21.70;72.50;;;;;;5095333;28;20052;-73
2023/07/11 02:13:20;;;;;;;5.72;3.90;;;21.80;72.40;;;;;;5095351;28;20032;-74
2023/07/11 02:15:45;;;;;;;6.60;4.00;;;21.70;72.50;;;;;;5095349;28;20035;-73
2023/07/11 02:18:11;;;;;;;8.20;4.32;;;21.70;72.70;;;;;;5095226;28;20035;-73
2023/07/11 02:20:44;;;;;;;8.32;4.25;;;21.70;72.70;;;;;;5095195;28;20060;-73
2023/07/11 02:23:12;;;;;;;5.45;3.88;;;21.60;72.70;;;;;;5095136;28;20076;-73
2023/07/11 02:25:38;;;;;;;6.10;3.88;;;21.60;73.10;;;;;;5095080;28;20032;-73
2023/07/11 02:28:04;;;;;;;4.95;3.70;;;21.50;73.00;;;;;;5095188;28;20032;-73
2023/07/11 02:30:31;;;;;;;5.15;3.85;;;21.50;73.00;;;;;;5095001;28;20044;-73
2023/07/11 02:32:57;;;;;;;5.25;4.00;;;21.50;73.00;;;;;;5095108;28;20087;-73
2023/07/11 02:35:24;;;;;;;4.68;4.07;;;21.50;73.30;;;;;;5094821;28;20082;-73
2023/07/11 02:37:50;;;;;;;9.05;4.32;;;21.50;73.70;;;;;;5094876;28;20029;-74
2023/07/11 02:40:16;;;;;;;7.53;4.63;;;21.50;73.20;;;;;;5094627;28;20077;-73
2023/07/11 02:42:41;;;;;;;7.43;4.60;;;21.50;72.80;;;;;;5093736;28;20033;-73
2023/07/11 02:45:07;;;;;;;6.88;4.10;;;21.50;72.80;;;;;;5093781;28;20028;-74
2023/07/11 02:47:33;;;;;;;5.70;4.30;;;21.40;72.80;;;;;;5093613;28;20028;-73
2023/07/11 02:49:58;;;;;;;6.85;4.47;;;21.40;72.80;;;;;;5093657;28;20044;-73
2023/07/11 02:52:24;;;;;;;5.97;4.75;;;21.40;72.80;;;;;;5094536;28;20077;-73
2023/07/11 02:54:49;;;;;;;8.70;4.13;;;21.40;73.50;;;;;;5076796;28;20044;-73
2023/07/11 02:57:15;;;;;;;7.53;4.55;;;21.20;72.60;;;;;;5076789;28;20027;-73
2023/07/11 02:59:41;;;;;;;8.52;5.88;;;21.20;73.00;;;;;;5093462;28;20552;-73
2023/07/11 03:02:06;;;;;;;8.18;4.50;;;21.20;73.30;;;;;;5094368;28;20028;-73
2023/07/11 03:04:32;;;;;;;8.13;4.75;;;21.20;73.30;;;;;;5093432;28;20024;-73
2023/07/11 03:06:58;;;;;;;6.60;4.60;;;21.20;73.50;;;;;;5094230;28;20028;-74
2023/07/11 03:09:26;;;;;;;6.45;4.65;;;21.10;73.80;;;;;;5094218;28;20582;-73
2023/07/11 03:11:52;;;;;;;6.10;4.55;;;21.10;74.10;;;;;;5093101;28;20043;-73
2023/07/11 03:14:19;;;;;;;5.72;4.18;;;21.10;74.60;;;;;;5094139;28;20038;-73
2023/07/11 03:16:50;;;;;;;5.95;4.32;;;21.00;74.70;;;;;;5093062;28;20069;-73
2023/07/11 03:19:15;;;;;;;8.70;4.43;;;21.00;75.10;;;;;;5094076;28;20035;-73
2023/07/11 03:21:41;;;;;;;7.07;4.35;;;21.00;75.20;;;;;;5093547;28;20048;-73
2023/07/11 03:24:07;;;;;;;6.85;4.50;;;21.00;75.30;;;;;;5092857;28;20033;-73
2023/07/11 03:26:32;;;;;;;5.65;4.10;;;20.90;75.60;;;;;;5093926;28;20044;-73
2023/07/11 03:28:58;;;;;;;7.93;4.65;;;20.90;75.70;;;;;;5076269;28;20025;-73
2023/07/11 03:31:25;;;;;;;7.35;4.38;;;21.00;75.50;;;;;;5093809;28;20060;-74
2023/07/11 03:33:50;;;;;;;8.00;4.72;;;20.90;75.20;;;;;;5093657;28;20058;-73
2023/07/11 03:36:16;;;;;;;7.15;4.55;;;20.90;75.10;;;;;;5093863;28;20052;-74
2023/07/11 03:38:41;;;;;;;6.15;4.15;;;20.90;75.30;;;;;;5093691;28;20036;-73
2023/07/11 03:41:07;;;;;;;6.00;4.03;;;20.80;75.20;;;;;;5093576;28;20053;-73
2023/07/11 03:43:33;;;;;;;7.70;4.53;;;20.80;75.20;;;;;;5075869;28;20384;-73
2023/07/11 03:45:58;;;;;;;8.10;4.90;;;20.80;75.00;;;;;;5092664;28;20028;-73
2023/07/11 03:48:24;;;;;;;5.72;4.53;;;20.80;75.00;;;;;;5093563;28;20033;-73
2023/07/11 03:50:49;;;;;;;6.82;4.53;;;20.80;74.90;;;;;;5093572;28;20033;-74
2023/07/11 03:53:15;;;;;;;9.10;4.57;;;20.70;74.80;;;;;;5093651;28;20024;-73
2023/07/11 03:55:44;;;;;;;6.35;4.28;;;20.70;74.80;;;;;;5092560;28;20040;-73
2023/07/11 03:58:10;;;;;;;10.32;4.50;;;20.60;74.90;;;;;;5092423;28;20055;-73
2023/07/11 04:00:36;;;;;;;7.40;4.57;;;20.60;75.20;;;;;;5093443;28;20076;-73
2023/07/11 04:03:02;;;;;;;7.63;4.65;;;20.60;75.10;;;;;;5092387;28;20040;-73
2023/07/11 04:05:29;;;;;;;7.25;4.70;;;20.50;75.10;;;;;;5092429;28;20047;-73
2023/07/11 04:07:55;;;;;;;7.03;5.32;;;20.40;75.60;;;;;;5092273;28;20013;-73
2023/07/11 04:10:20;;;;;;;6.18;4.68;;;20.40;75.60;;;;;;5092372;28;20029;-73
2023/07/11 04:12:46;;;;;;;7.35;5.15;;;20.40;75.70;;;;;;5092353;28;20020;-73
2023/07/11 04:15:13;;;;;;;8.98;5.07;;;20.40;75.80;;;;;;5093251;28;20403;-74
2023/07/11 04:17:39;;;;;;;8.60;5.38;;;20.40;75.90;;;;;;5093271;28;20035;-73
2023/07/11 04:20:05;;;;;;;9.15;5.25;;;20.40;75.80;;;;;;5092301;28;20055;-73
2023/07/11 04:22:31;;;;;;;8.65;5.65;;;20.30;75.90;;;;;;5093121;28;20049;-74
2023/07/11 04:24:56;;;;;;;7.80;4.88;;;20.30;76.00;;;;;;5093110;28;20029;-73
2023/07/11 04:27:23;;;;;;;8.05;4.80;;;20.30;76.20;;;;;;5092217;28;20031;-73
2023/07/11 04:29:49;;;;;;;9.98;5.93;;;20.30;76.40;;;;;;5093117;28;20042;-74
2023/07/11 04:32:14;;;;;;;9.00;5.30;;;20.30;76.30;;;;;;5092075;28;20053;-74
2023/07/11 04:34:40;;;;;;;6.30;4.75;;;20.20;77.40;;;;;;5078464;28;20096;-74
2023/07/11 04:37:06;;;;;;;6.32;4.72;;;20.30;77.80;;;;;;5097178;28;20456;-73
2023/07/11 04:39:32;;;;;;;7.55;5.05;;;20.20;77.10;;;;;;5096119;28;20041;-73
2023/07/11 04:41:57;;;;;;;6.47;4.68;;;20.20;77.20;;;;;;5096783;28;20064;-73
2023/07/11 04:44:23;;;;;;;7.93;4.80;;;20.20;77.50;;;;;;5095954;28;20045;-73
2023/07/11 04:46:49;;;;;;;6.53;4.80;;;20.10;77.80;;;;;;5095860;28;20027;-73
2023/07/11 04:49:14;;;;;;;6.88;4.68;;;20.20;77.90;;;;;;5095984;28;20032;-74
2023/07/11 04:51:40;;;;;;;8.05;4.93;;;20.20;77.90;;;;;;5096003;28;20031;-73
2023/07/11 04:54:06;;;;;;;6.63;4.78;;;20.20;77.90;;;;;;5096956;28;20052;-73
2023/07/11 04:56:32;;;;;;;6.63;4.75;;;20.20;78.00;;;;;;5095737;28;20044;-73
2023/07/11 04:58:59;;;;;;;6.30;4.57;;;20.30;78.10;;;;;;5096726;28;20107;-73
2023/07/11 05:01:25;;;;;;;7.05;4.90;;;20.30;78.20;;;;;;5095726;28;20054;-73
2023/07/11 05:03:51;;;;;;;7.68;4.95;;;20.30;79.20;;;;;;5096538;28;20025;-73
2023/07/11 05:06:17;;;;;;;8.18;4.80;;;20.40;78.40;;;;;;5095663;28;20016;-73
2023/07/11 05:08:43;;;;;;;6.28;4.90;;;20.40;78.50;;;;;;5096543;28;20076;-73
2023/07/11 05:11:13;;;;;;;8.27;5.07;;;20.40;78.80;;;;;;5096506;28;20031;-73
2023/07/11 05:13:40;;;;;;;7.95;5.00;;;20.40;78.90;;;;;;5096418;28;20024;-73
2023/07/11 05:16:10;;;;;;;6.40;4.63;;;20.40;78.70;;;;;;5096407;28;20028;-73
2023/07/11 05:18:39;;;;;;;7.85;5.07;;;20.40;78.80;;;;;;5096369;28;20055;-73
2023/07/11 05:21:06;;;;;;;11.05;5.38;;;20.50;78.80;;;;;;5096329;28;20024;-73
2023/07/11 05:23:31;;;;;;;8.52;5.03;;;20.50;79.10;;;;;;5095234;28;20066;-74
2023/07/11 05:25:57;;;;;;;9.45;4.88;;;20.50;79.00;;;;;;5095294;28;20029;-73
2023/07/11 05:28:26;;;;;;;6.43;4.95;;;20.50;78.90;;;;;;5095256;28;20025;-73
2023/07/11 05:30:53;;;;;;;9.18;5.03;;;20.60;79.00;;;;;;5096142;28;20021;-74
2023/07/11 05:33:19;;;;;;;9.73;5.00;;;20.60;78.60;;;;;;5095977;28;20028;-74
2023/07/11 05:35:57;;;;;;;8.90;4.97;;;20.60;78.50;;;;;;5095160;28;20054;-74
2023/07/11 05:38:24;;;;;;;5.82;4.60;;;20.70;78.60;;;;;;5095343;28;20078;-74
2023/07/11 05:40:49;;;;;;;6.80;4.55;;;20.70;78.10;;;;;;5094489;28;20044;-73
2023/07/11 05:43:15;;;;;;;7.55;4.97;;;20.80;78.10;;;;;;5093837;28;20111;-74
2023/07/11 05:45:43;;;;;;;8.35;4.30;;;20.80;77.80;;;;;;5093535;28;20028;-74
2023/07/11 05:48:09;;;;;;;6.63;3.97;;;20.90;77.80;;;;;;5094715;28;20035;-74
2023/07/11 05:50:35;;;;;;;7.47;4.47;;;21.00;77.40;;;;;;5094675;28;20021;-74
2023/07/11 05:53:00;;;;;;;5.45;4.13;;;21.00;77.80;;;;;;5094612;28;20516;-74
2023/07/11 05:55:26;;;;;;;5.10;3.72;;;21.10;77.70;;;;;;5093557;28;20029;-74
2023/07/11 05:57:52;;;;;;;7.25;3.72;;;21.20;77.40;;;;;;5094543;28;20029;-74
2023/07/11 06:00:18;;;;;;;5.93;3.80;;;21.20;77.30;;;;;;5094605;28;20020;-74
2023/07/11 06:02:43;;;;;;;5.00;3.60;;;21.20;77.50;;;;;;5094283;28;20035;-76
2023/07/11 06:05:09;;;;;;;7.07;4.05;;;21.30;77.30;;;;;;5093690;28;20021;-74
2023/07/11 06:07:35;;;;;;;5.85;3.90;;;21.30;77.30;;;;;;5094426;28;20040;-74
2023/07/11 06:10:01;;;;;;;6.68;3.70;;;21.50;77.40;;;;;;5094355;28;20485;-74
2023/07/11 06:12:27;;;;;;;4.85;3.42;;;21.50;77.10;;;;;;5094298;28;20021;-75
2023/07/11 06:14:52;;;;;;;5.47;3.67;;;21.60;77.20;;;;;;5094258;28;20030;-74
2023/07/11 06:17:18;;;;;;;4.30;3.13;;;21.70;76.90;;;;;;5094259;28;20028;-74
2023/07/11 06:19:44;;;;;;;5.78;3.13;;;21.70;77.20;;;;;;5093280;28;20040;-74
2023/07/11 06:22:10;;;;;;;6.70;3.17;;;21.80;76.80;;;;;;5094191;28;20039;-75
2023/07/11 06:24:37;;;;;;;6.85;3.35;;;21.90;76.40;;;;;;5093149;28;20084;-74
2023/07/11 06:27:03;;;;;;;6.43;3.53;;;22.00;76.50;;;;;;5094211;28;20023;-74
2023/07/11 06:29:29;;;;;;;5.47;3.38;;;22.00;76.50;;;;;;5094079;28;20031;-74
2023/07/11 06:31:55;;;;;;;6.93;2.80;;;22.10;76.20;;;;;;5093151;28;20021;-74
2023/07/11 06:34:21;;;;;;;4.70;3.47;;;22.20;75.00;;;;;;5093915;28;20028;-74
2023/07/11 06:36:46;;;;;;;7.40;3.40;;;22.20;75.70;;;;;;5076246;28;20037;-74
2023/07/11 06:39:12;;;;;;;9.43;3.30;;;22.30;75.10;;;;;;5093902;28;20032;-74
2023/07/11 06:41:38;;;;;;;4.22;3.08;;;22.30;75.30;;;;;;5052932;28;1175179;-74
2023/07/11 06:44:06;;;;;;;7.22;3.65;;;22.40;75.20;;;;;;5093722;28;20031;-74
2023/07/11 06:46:34;;;;;;;5.00;3.33;;;22.50;75.50;;;;;;5094683;28;20016;-74
2023/07/11 06:49:00;;;;;;;8.65;3.33;;;22.50;75.00;;;;;;5094682;28;20025;-74
2023/07/11 06:51:26;;;;;;;5.75;3.38;;;22.50;75.00;;;;;;5094587;28;20009;-74
2023/07/11 06:53:52;;;;;;;6.10;3.20;;;22.50;74.90;;;;;;5093545;28;20025;-74
2023/07/11 06:56:18;;;;;;;5.75;3.40;;;22.60;75.10;;;;;;5093751;28;20035;-73
2023/07/11 06:58:44;;;;;;;4.88;3.42;;;22.60;74.40;;;;;;5094446;28;20034;-74
2023/07/11 07:01:11;;;;;;;6.03;3.75;;;22.70;74.80;;;;;;5094403;28;20080;-74
2023/07/11 07:03:37;;;;;;;6.38;3.60;;;22.80;75.20;;;;;;5094282;28;20036;-74
2023/07/11 07:06:09;;;;;;;8.00;3.70;;;22.90;75.80;;;;;;5093344;28;20028;-73
2023/07/11 07:08:35;;;;;;;5.93;3.85;;;23.00;74.30;;;;;;5094263;28;20028;-74
2023/07/11 07:11:02;;;;;;;6.38;3.35;;;23.00;74.30;;;;;;5094189;28;20037;-74
2023/07/11 07:13:28;;;;;;;10.52;3.65;;;23.10;75.10;;;;;;5094151;28;20017;-74
2023/07/11 07:15:56;;;;;;;5.50;3.17;;;23.10;74.20;;;;;;5093088;28;20034;-74
2023/07/11 07:18:23;;;;;;;5.57;3.10;;;23.20;74.10;;;;;;5094046;28;20050;-74
2023/07/11 07:20:50;;;;;;;5.90;3.17;;;23.30;74.20;;;;;;5094039;28;20025;-74
2023/07/11 07:23:16;;;;;;;6.00;3.10;;;23.40;73.80;;;;;;5093939;28;20024;-73
2023/07/11 07:25:53;;;;;;;8.68;3.25;;;23.40;73.10;;;;;;5093963;28;20023;-74
2023/07/11 07:28:19;;;;;;;6.05;3.10;;;23.50;73.30;;;;;;5093954;28;20020;-73
2023/07/11 07:30:46;;;;;;;5.97;2.80;;;23.60;73.00;;;;;;5093866;28;20028;-73
2023/07/11 07:33:12;;;;;;;7.15;2.20;;;23.60;73.30;;;;;;5093821;28;20035;-74
2023/07/11 07:35:37;;;;;;;6.47;2.95;;;23.60;71.80;;;;;;5093716;28;20033;-74
2023/07/11 07:38:03;;;;;;;5.88;3.05;;;23.60;71.60;;;;;;5093868;28;20025;-74
2023/07/11 07:40:29;;;;;;;5.35;2.40;;;23.70;70.80;;;;;;5093638;28;20063;-74
2023/07/11 07:42:54;;;;;;;5.30;2.90;;;23.70;71.30;;;;;;5092616;28;20039;-74
2023/07/11 07:45:20;;;;;;;5.38;2.55;;;23.90;72.30;;;;;;5093613;28;20403;-74
2023/07/11 07:47:46;;;;;;;3.70;2.65;;;23.90;70.90;;;;;;5092705;28;20028;-74
2023/07/11 07:50:12;;;;;;;5.95;3.00;;;23.90;70.30;;;;;;5075982;28;20399;-74
2023/07/11 07:52:37;;;;;;;6.38;2.90;;;24.00;69.30;;;;;;5093535;28;20052;-75
2023/07/11 07:55:03;;;;;;;6.28;2.20;;;24.10;70.90;;;;;;5093634;28;20024;-76
2023/07/11 07:57:29;;;;;;;5.15;2.30;;;24.10;70.20;;;;;;5093508;28;20029;-77
2023/07/11 07:59:54;;;;;;;4.43;2.63;;;24.20;69.80;;;;;;5093390;28;20059;-76
2023/07/11 08:02:20;;;;;;;4.20;2.60;;;24.30;69.30;;;;;;5092345;28;20058;-76
2023/07/11 08:04:47;;;;;;;6.18;2.50;;;24.40;68.40;;;;;;5092362;28;20044;-76
2023/07/11 08:07:14;;;;;;;4.97;2.55;;;24.40;68.00;;;;;;5093205;28;20013;-77
2023/07/11 08:09:40;;;;;;;6.35;2.58;;;24.50;68.10;;;;;;5093458;28;20250;-77
2023/07/11 08:12:07;;;;;;;6.75;2.60;;;24.60;67.90;;;;;;5075538;28;20028;-76
2023/07/11 08:14:37;;;;;;;5.90;2.50;;;24.70;68.90;;;;;;5092256;28;20096;-77
2023/07/11 08:17:04;;;;;;;5.93;2.80;;;24.80;70.30;;;;;;5092193;28;20050;-77
2023/07/11 08:19:29;;;;;;;4.50;2.10;;;24.90;66.70;;;;;;5092184;28;20085;-76
2023/07/11 08:21:55;;;;;;;3.97;2.28;;;24.90;65.60;;;;;;5092163;28;20044;-76
2023/07/11 08:24:21;;;;;;;5.45;2.30;;;24.90;66.80;;;;;;5092167;28;20033;-77
2023/07/11 08:26:46;;;;;;;5.80;2.20;;;25.00;65.40;;;;;;5075541;28;20024;-77
2023/07/11 08:29:13;;;;;;;7.30;2.17;;;25.10;65.00;;;;;;5092115;28;20028;-77
2023/07/11 08:31:39;;;;;;;5.88;2.28;;;25.10;65.80;;;;;;5092237;28;20076;-77
2023/07/11 08:34:04;;;;;;;8.68;2.08;;;25.10;63.70;;;;;;5075386;28;20033;-77
2023/07/11 08:36:30;;;;;;;3.35;1.83;;;25.10;64.00;;;;;;5093087;28;20547;-76
2023/07/11 08:38:56;;;;;;;3.75;2.00;;;25.20;64.10;;;;;;5092117;28;20033;-76
2023/07/11 08:41:33;;;;;;;5.72;1.83;;;25.20;61.90;;;;;;5092898;28;20068;-76
2023/07/11 08:44:06;;;;;;;3.20;1.80;;;25.20;64.00;;;;;;5092941;28;20031;-74
2023/07/11 08:46:40;;;;;;;3.70;1.90;;;25.30;62.10;;;;;;5093027;28;20028;-74
2023/07/11 08:49:10;;;;;;;5.40;2.03;;;25.40;64.10;;;;;;5093066;28;20026;-74
2023/07/11 08:51:40;;;;;;;3.47;1.85;;;25.50;65.10;;;;;;5093079;28;20112;-74
2023/07/11 08:54:15;;;;;;;5.93;1.90;;;25.60;63.60;;;;;;5092973;28;20029;-78
2023/07/11 08:56:43;;;;;;;3.70;1.58;;;25.60;62.50;;;;;;5092145;28;20036;-79
2023/07/11 08:59:21;;;;;;;2.45;1.65;;;25.50;61.10;;;;;;5092890;28;20029;-79
2023/07/11 09:02:24;;;;;;;5.50;1.70;;;25.60;62.80;;;;;;5093068;28;20028;-76
2023/07/11 09:04:53;;;;;;;5.28;1.90;;;25.70;60.80;;;;;;5091678;28;20020;-77
2023/07/11 09:07:36;;;;;;;2.97;1.90;;;25.70;60.70;;;;;;5092807;28;20048;-79
2023/07/11 09:10:13;;;;;;;3.67;1.65;;;25.80;59.60;;;;;;5091802;28;20031;-77
2023/07/11 09:12:48;;;;;;;3.40;1.60;;;25.80;59.90;;;;;;5092919;28;20028;-76
2023/07/11 09:15:21;;;;;;;3.20;1.55;;;25.90;61.00;;;;;;5091789;28;20025;-76
2023/07/11 09:18:15;;;;;;;4.72;2.17;;;25.90;61.80;;;;;;5091744;28;20020;-76
2023/07/11 09:21:13;;;;;;;5.47;1.90;;;26.00;60.80;;;;;;5095795;28;20036;-76
2023/07/11 09:23:59;;;;;;;4.55;1.90;;;26.00;59.00;;;;;;5096382;28;20032;-76
2023/07/11 09:26:29;;;;;;;6.05;1.77;;;25.90;59.60;;;;;;5096324;28;20013;-76
2023/07/11 09:29:03;;;;;;;7.80;2.03;;;25.80;60.60;;;;;;5095430;28;20074;-76
2023/07/11 09:31:41;;;;;;;3.60;1.92;;;25.80;58.70;;;;;;5096205;28;20024;-77
2023/07/11 09:34:38;;;;;;;4.55;1.77;;;25.90;60.40;;;;;;5095180;28;20392;-73
2023/07/11 09:37:13;;;;;;;5.32;2.05;;;26.00;58.30;;;;;;5096096;28;20029;-77
2023/07/11 09:39:55;;;;;;;3.58;1.65;;;26.20;58.00;;;;;;5095048;28;20031;-76
2023/07/11 09:42:47;;;;;;;4.70;1.88;;;26.30;59.10;;;;;;5094918;28;20423;-76
2023/07/11 09:45:16;;;;;;;4.18;1.83;;;26.40;59.90;;;;;;5095289;28;20043;-72
2023/07/11 09:47:47;;;;;;;5.40;1.88;;;26.40;57.90;;;;;;5095972;28;20020;-72
2023/07/11 09:50:31;;;;;;;12.77;1.85;;;26.50;58.50;;;;;;5095924;28;20017;-72
2023/07/11 09:53:00;;;;;;;5.28;2.10;;;26.60;56.00;;;;;;5095954;28;20025;-71
2023/07/11 09:55:30;;;;;;;6.18;2.05;;;26.70;59.20;;;;;;5094759;28;20016;-77
2023/07/11 09:57:56;;;;;;;4.78;1.67;;;26.80;58.60;;;;;;5095789;28;20020;-77
2023/07/11 10:00:22;;;;;;;5.40;1.90;;;26.80;57.70;;;;;;5094575;28;20024;-76
2023/07/11 10:02:48;;;;;;;3.55;2.17;;;26.80;57.20;;;;;;5095550;28;20055;-75
2023/07/11 10:05:20;;;;;;;3.72;1.90;;;26.80;57.80;;;;;;5094513;28;20025;-76
2023/07/11 10:08:13;;;;;;;5.22;1.73;;;26.90;56.30;;;;;;5095539;28;20025;-75
2023/07/11 10:10:45;;;;;;;7.97;1.80;;;26.90;55.70;;;;;;5095561;28;20021;-75
2023/07/11 10:13:11;;;;;;;2.78;1.85;;;27.10;57.20;;;;;;5095469;28;20055;-75
2023/07/11 10:15:37;;;;;;;4.72;2.17;;;27.10;56.60;;;;;;5095372;28;20028;-75
2023/07/11 10:18:04;;;;;;;8.45;2.10;;;27.10;57.60;;;;;;5077612;28;20092;-76
2023/07/11 10:20:31;;;;;;;4.80;1.98;;;27.00;54.40;;;;;;5094410;28;20029;-76
2023/07/11 10:23:05;;;;;;;6.03;1.90;;;27.00;55.50;;;;;;5095184;28;20021;-76
2023/07/11 10:25:31;;;;;;;5.05;1.60;;;27.00;56.50;;;;;;5094187;28;20080;-75
2023/07/11 10:27:59;;;;;;;4.95;1.80;;;27.20;55.50;;;;;;5077542;28;20017;-75
2023/07/11 10:30:28;;;;;;;4.18;1.70;;;27.30;55.70;;;;;;5094333;28;20024;-75
2023/07/11 10:33:02;;;;;;;3.63;1.90;;;27.30;53.80;;;;;;5094678;28;20040;-75
2023/07/11 10:35:30;;;;;;;3.45;2.20;;;27.30;53.40;;;;;;5093911;28;20089;-76
2023/07/11 10:38:08;;;;;;;3.92;1.95;;;27.30;55.70;;;;;;5093864;28;20023;-76
2023/07/11 10:40:41;;;;;;;5.18;2.40;;;27.30;54.40;;;;;;5093758;28;20045;-76
2023/07/11 10:43:27;;;;;;;3.90;2.10;;;27.30;54.00;;;;;;5093759;28;20030;-76
2023/07/11 10:46:03;;;;;;;6.60;2.22;;;27.40;54.10;;;;;;5094791;28;20032;-76
2023/07/11 10:48:34;;;;;;;5.45;2.35;;;27.50;55.40;;;;;;5094759;28;20028;-76
2023/07/11 10:51:32;;;;;;;4.80;2.20;;;27.50;53.30;;;;;;5094671;28;20025;-77
2023/07/11 10:54:07;;;;;;;3.97;2.13;;;27.50;51.70;;;;;;5093646;28;20275;-76
2023/07/11 10:56:42;;;;;;;3.97;1.88;;;27.40;51.60;;;;;;5093578;28;20025;-76
2023/07/11 10:59:12;;;;;;;5.22;2.13;;;27.40;53.10;;;;;;5094550;28;20028;-76
2023/07/11 11:02:00;;;;;;;4.85;1.98;;;27.50;52.00;;;;;;5094506;28;20035;-76
2023/07/11 11:04:39;;;;;;;7.10;2.22;;;27.50;51.30;;;;;;5094362;28;20025;-76
2023/07/11 11:07:17;;;;;;;4.38;2.13;;;27.50;54.10;;;;;;5094374;28;20016;-75
2023/07/11 11:10:07;;;;;;;7.07;2.40;;;27.60;54.70;;;;;;5094327;28;20031;-77
2023/07/11 11:13:14;;;;;;;3.78;2.03;;;27.60;56.70;;;;;;5093226;28;20063;-76
2023/07/11 11:16:02;;;;;;;5.03;2.05;;;27.60;54.00;;;;;;5045146;28;20389;-76
2023/07/11 11:18:48;;;;;;;4.53;1.80;;;27.70;53.50;;;;;;5094349;28;20103;-75
2023/07/11 11:21:32;;;;;;;5.13;1.90;;;27.70;53.60;;;;;;5093034;28;20039;-75
2023/07/11 11:24:22;;;;;;;3.78;2.20;;;27.70;55.20;;;;;;5093909;28;20024;-76
2023/07/11 11:27:04;;;;;;;4.22;1.77;;;27.60;51.80;;;;;;5092942;28;20050;-77
2023/07/11 11:30:03;;;;;;;5.43;2.05;;;27.60;52.90;;;;;;5092970;28;20043;-76
2023/07/11 11:32:48;;;;;;;4.70;2.00;;;27.70;55.40;;;;;;5079742;28;20021;-75
2023/07/11 11:35:29;;;;;;;6.63;2.13;;;27.80;54.50;;;;;;5093750;28;20045;-75
2023/07/11 11:38:10;;;;;;;4.47;1.70;;;27.90;55.20;;;;;;5092779;28;20024;-76
2023/07/11 11:40:39;;;;;;;5.57;2.10;;;28.00;52.30;;;;;;5093440;28;20100;-75
2023/07/11 11:43:15;;;;;;;2.72;1.85;;;28.00;53.40;;;;;;5093414;28;20027;-76
2023/07/11 11:45:42;;;;;;;6.05;2.00;;;28.10;52.20;;;;;;5092736;28;20050;-76
2023/07/11 11:48:17;;;;;;;3.85;1.90;;;28.10;51.20;;;;;;5076223;28;20025;-77
2023/07/11 11:50:45;;;;;;;6.40;2.65;;;28.20;52.70;;;;;;5093547;28;20050;-75
2023/07/11 11:53:23;;;;;;;4.03;2.10;;;28.10;52.60;;;;;;5075970;28;20028;-75
2023/07/11 11:55:56;;;;;;;5.50;2.13;;;28.10;53.30;;;;;;5092596;28;20036;-75
2023/07/11 11:58:25;;;;;;;9.10;2.42;;;28.20;55.90;;;;;;5093539;28;20027;-75
2023/07/11 12:00:54;;;;;;;7.63;2.35;;;28.30;53.40;;;;;;5092480;28;20062;-77
2023/07/11 12:03:32;;;;;;;4.15;1.98;;;28.30;54.70;;;;;;5092428;28;20024;-77
2023/07/11 12:06:01;;;;;;;4.82;2.00;;;28.50;56.50;;;;;;5092417;28;20024;-76
2023/07/11 12:08:34;;;;;;;4.03;1.80;;;28.60;55.80;;;;;;5093333;28;20078;-76
2023/07/11 12:11:06;;;;;;;6.65;2.25;;;28.70;52.00;;;;;;5092397;28;20021;-76
2023/07/11 12:13:33;;;;;;;4.18;2.20;;;28.70;53.10;;;;;;5093367;28;20017;-77
2023/07/11 12:16:21;;;;;;;3.92;2.03;;;28.70;50.20;;;;;;5092327;28;20025;-76
2023/07/11 12:18:52;;;;;;;5.50;2.10;;;28.80;51.00;;;;;;5092341;28;20031;-76
2023/07/11 12:21:39;;;;;;;7.88;3.58;;;28.90;52.10;;;;;;5093281;28;20016;-75
2023/07/11 12:24:34;;;;;;;7.13;2.40;;;29.00;47.70;;;;;;5093166;28;20104;-75
2023/07/11 12:27:16;;;;;;;5.45;2.00;;;29.10;49.10;;;;;;5092278;28;20025;-76
2023/07/11 12:29:51;;;;;;;4.32;1.90;;;29.20;50.10;;;;;;5093197;28;20041;-75
2023/07/11 12:32:32;;;;;;;5.75;2.10;;;29.20;48.00;;;;;;5092114;28;20024;-75
2023/07/11 12:35:04;;;;;;;5.47;2.10;;;29.30;51.30;;;;;;5093035;28;20047;-75
2023/07/11 12:37:34;;;;;;;4.78;2.17;;;29.30;51.90;;;;;;5093097;28;20029;-76
2023/07/11 12:40:16;;;;;;;4.30;2.03;;;29.10;50.80;;;;;;5093268;28;20052;-76
2023/07/11 12:42:54;;;;;;;5.55;2.30;;;29.10;51.30;;;;;;5093113;28;20436;-76
2023/07/11 12:45:25;;;;;;;4.22;2.13;;;29.10;52.10;;;;;;5092977;28;20028;-76
2023/07/11 12:48:19;;;;;;;3.13;1.88;;;29.20;52.00;;;;;;5092087;28;20047;-76
2023/07/11 12:50:51;;;;;;;8.00;2.10;;;29.30;51.80;;;;;;5070454;28;20032;-76
2023/07/11 12:53:17;;;;;;;4.03;2.30;;;29.30;52.90;;;;;;5092213;28;20021;-76
2023/07/11 12:55:52;;;;;;;4.75;2.22;;;29.30;48.60;;;;;;5095125;28;20021;-76
2023/07/11 12:58:29;;;;;;;5.43;2.38;;;29.30;49.40;;;;;;5095952;28;20024;-76
2023/07/11 13:00:57;;;;;;;4.85;2.45;;;29.30;49.00;;;;;;5096842;28;20028;-75